Corum, Turkey
Current Conditions -  °F | °C
As of 2:20 PM on Thursday 23 Oct 2014 (Local Time) from LTAP Reporting Station
Broken Clouds Broken Clouds  
Wind Chill: 72°   Ceiling: 18000
Heat Index: 72°   Visibility: 6mi
Dew Point: 34°   Wind: 10mph
Humidity: 25%   Direction: 180°S
Pressure: 29.88"   Gusts: NA
Location:  40.56°N, 34.96°E
Report Text: LTAP 231120Z 18009KT 9999 FEW040 BKN180 22/01 Q1012 NOSIG
Loading
Personal Weather Stations






























Interactive Weather Map
Tropical Storm Tracking
New forecast layout! Learn more

10-Day Weather Forecast

Advertisements
Track Severe Weather on mobile